Flight Number: EUR2036 Duration: 1:20
Departure: Copenhagen Kastrup (EKCH) at 18:20 Distance: 386 Nm
Arrival: Riga Int'l Airport (EVRA) at 19:40 Equipment: B737

Weather Information
Koebenhavn / Kastrup, Denmark (EKCH) 55-37N 012-39E 5M Aug 19, 2018 - 04:50 AM EDT / 2018.08.19 0850 UTC
Wind: from the WSW (250 degrees) at 13 MPH (11 KT):0
Visibility: greater than 7 mile(s):0
Sky conditions: mostly cloudy Temperature: 68 F (20 C) Dew Point: 60 F (16 C) Relative Humidity: 77% Pressure (altimeter): 30.06 in. Hg (1018 hPa)
ob: EKCH 190850Z 25011KT 9999 FEW018 BKN067 20/16 Q1018 NOSIG cycle: 9
Sunrise: 03:55 Sunset: 18:30 (UTC)

Riga International Airport, Latvia (EVRA) 56-55N 023-58E Aug 19, 2018 - 04:50 AM EDT / 2018.08.19 0850 UTC
Wind: from the SW (220 degrees) at 9 MPH (8 KT) (direction variable):0
Visibility: greater than 7 mile(s):0
Sky conditions: partly cloudy Weather: Cumulonimbus clouds observed Temperature: 66 F (19 C) Dew Point: 60 F (16 C) Relative Humidity: 82% Pressure (altimeter): 30.00 in. Hg (1016 hPa)
ob: EVRA 190850Z 22008KT 180V260 9999 FEW018 SCT041CB 19/16 Q1016 NOSIG cycle: 9
Sunrise: 03:05 Sunset: 17:49 (UTC)

TAF:2018/08/19 09:10 TAF EVRA 190800Z 1909/2009 24010KT 9999 BKN030 TEMPO 1909/1915 BKN020CB BECMG 1916/1918 18005KT TEMPO 1918/1923 3000 MIFG BR SCT005 TEMPO 1923/2006 3000 -RA BR BKN005

Previous Pireps for this route
Date Aircraft Flight time Fuel used Landing rate On time
2013-01-28B7371.13100650No
2013-01-30B7371.2064500No
2013-01-31B7371.3067090No
2013-02-02B7371.13100650No
2013-03-07B73701.337756-139Yes
2013-07-21B73701.2813801-249No
2013-08-24B73701.3412616-324No
2013-11-15B73702.1011479-427Yes
2013-11-16B73702.2812607-160No
2013-12-21B7371.3067460Yes
2014-02-15B73701.3413282-162Yes
2014-02-17B73701.307866-571Yes
2014-03-22B737168850Yes
2015-03-29B73701.2511980-478Yes
(pireps marked green are flown by you)

Route map